createdAt,value
2018-03-20T00:01:33.145Z,18.47
2018-03-20T00:04:01.423Z,17.97
2018-03-20T00:06:29.692Z,16.50
2018-03-20T00:08:58.379Z,17.03
2018-03-20T00:11:26.668Z,18.73
2018-03-20T00:13:54.970Z,18.37
2018-03-20T00:16:23.225Z,21.97
2018-03-20T00:18:51.540Z,19.63
2018-03-20T00:21:20.578Z,21.90
2018-03-20T00:23:48.846Z,26.50
2018-03-20T00:26:17.127Z,28.37
2018-03-20T00:28:45.363Z,21.70
2018-03-20T00:31:13.710Z,22.17
2018-03-20T00:33:41.959Z,29.00
2018-03-20T00:36:10.290Z,28.10
2018-03-20T00:38:38.503Z,24.03
2018-03-20T00:41:06.790Z,28.85
2018-03-20T00:43:35.088Z,29.57
2018-03-20T00:46:04.974Z,26.53
2018-03-20T00:48:33.201Z,22.67
2018-03-20T00:51:01.500Z,25.93
2018-03-20T00:53:30.541Z,29.23
2018-03-20T00:55:58.804Z,33.85
2018-03-20T00:58:27.074Z,31.30
2018-03-20T01:00:55.338Z,30.43
2018-03-20T01:03:23.576Z,31.27
2018-03-20T01:05:52.648Z,32.53
2018-03-20T01:08:20.890Z,36.77
2018-03-20T01:10:49.169Z,34.57
2018-03-20T01:13:17.562Z,27.73
2018-03-20T01:15:45.835Z,29.63
2018-03-20T01:18:14.072Z,38.90
2018-03-20T01:20:42.544Z,37.50
2018-03-20T01:23:10.720Z,34.47
2018-03-20T01:25:38.985Z,31.60
2018-03-20T01:28:08.018Z,23.13
2018-03-20T01:30:36.293Z,33.20
2018-03-20T01:33:04.554Z,32.83
2018-03-20T01:35:32.811Z,36.27
2018-03-20T01:38:01.077Z,26.17
2018-03-20T01:40:29.361Z,35.53
2018-03-20T01:42:58.426Z,32.73
2018-03-20T01:45:26.673Z,31.93
2018-03-20T01:47:54.979Z,31.13
2018-03-20T01:50:23.247Z,23.67
2018-03-20T01:53:03.323Z,29.67
2018-03-20T01:55:32.390Z,27.83
2018-03-20T01:58:01.475Z,37.37
2018-03-20T02:00:29.733Z,22.47
2018-03-20T02:02:58.027Z,27.90
2018-03-20T02:05:26.295Z,28.60
2018-03-20T02:07:54.582Z,33.00
2018-03-20T02:10:22.878Z,22.93
2018-03-20T02:12:51.114Z,29.37
2018-03-20T02:15:19.386Z,33.30
2018-03-20T02:17:47.698Z,27.13
2018-03-20T02:20:16.490Z,24.98
2018-03-20T02:22:46.273Z,28.63
2018-03-20T02:25:14.535Z,29.87
2018-03-20T02:27:42.774Z,31.10
2018-03-20T02:30:11.846Z,30.90
2018-03-20T02:32:40.077Z,29.37
2018-03-20T02:35:08.321Z,22.63
2018-03-20T02:37:36.756Z,37.70
2018-03-20T02:40:05.023Z,29.43
2018-03-20T02:42:33.313Z,25.93
2018-03-20T02:45:01.615Z,26.60
2018-03-20T02:47:31.349Z,25.07
2018-03-20T02:49:59.700Z,29.63
2018-03-20T02:52:29.493Z,28.67
2018-03-20T02:54:57.747Z,35.47
2018-03-20T02:57:26.002Z,25.50
2018-03-20T02:59:54.274Z,24.20
2018-03-20T03:02:22.521Z,32.27
2018-03-20T03:04:52.260Z,26.23
2018-03-20T03:07:20.521Z,20.97
2018-03-20T03:09:48.868Z,24.02
2018-03-20T03:12:17.128Z,25.80
2018-03-20T03:14:45.420Z,18.23
2018-03-20T03:17:15.193Z,19.33
2018-03-20T03:19:43.493Z,24.83
2018-03-20T03:22:12.698Z,23.27
2018-03-20T03:24:43.953Z,22.93
2018-03-20T03:27:12.171Z,22.30
2018-03-20T03:29:40.465Z,18.30
2018-03-20T03:32:08.754Z,20.77
2018-03-20T03:34:37.018Z,21.57
2018-03-20T03:37:05.286Z,17.97
2018-03-20T03:39:34.000Z,18.27
2018-03-20T03:42:02.274Z,19.37
2018-03-20T03:44:30.504Z,23.60
2018-03-20T03:46:58.742Z,16.23
2018-03-20T03:49:27.032Z,16.67
2018-03-20T03:51:56.070Z,14.83
2018-03-20T03:54:24.334Z,13.53
2018-03-20T03:56:52.599Z,12.57
2018-03-20T03:59:21.623Z,12.60
2018-03-20T04:01:49.881Z,11.90
2018-03-20T04:04:18.210Z,8.87
2018-03-20T04:06:48.014Z,10.57
2018-03-20T04:09:16.228Z,9.60
2018-03-20T04:11:45.298Z,11.27
2018-03-20T04:14:15.065Z,8.20
2018-03-20T04:16:43.345Z,10.23
2018-03-20T04:19:11.612Z,8.40
2018-03-20T04:21:39.878Z,10.80
2018-03-20T04:24:08.122Z,8.30
2018-03-20T04:26:36.393Z,10.47
2018-03-20T04:29:04.659Z,7.30
2018-03-20T04:31:34.455Z,10.93
2018-03-20T04:34:02.733Z,9.17
2018-03-20T04:36:31.009Z,11.30
2018-03-20T04:38:59.239Z,10.37
2018-03-20T04:41:27.535Z,7.80
2018-03-20T04:43:55.820Z,9.80
2018-03-20T04:46:24.046Z,7.83
2018-03-20T04:48:52.983Z,9.87
2018-03-20T04:51:21.245Z,9.00
2018-03-20T04:53:49.519Z,10.70
2018-03-20T04:56:17.814Z,9.00
2018-03-20T04:58:46.064Z,7.57
2018-03-20T05:01:14.372Z,8.90
2018-03-20T05:03:42.670Z,13.33
2018-03-20T05:06:10.991Z,13.10
2018-03-20T05:08:39.286Z,9.47
2018-03-20T05:11:08.333Z,9.73
2018-03-20T05:13:36.560Z,9.60
2018-03-20T05:16:04.874Z,9.80
2018-03-20T05:18:33.135Z,11.80
2018-03-20T05:21:04.887Z,8.83
2018-03-20T05:23:36.759Z,9.73
2018-03-20T05:26:05.046Z,7.37
2018-03-20T05:28:33.298Z,8.77
2018-03-20T05:31:01.536Z,9.98
2018-03-20T05:33:30.950Z,8.60
2018-03-20T05:35:59.212Z,7.97
2018-03-20T05:38:27.489Z,8.47
2018-03-20T05:40:56.554Z,7.77
2018-03-20T05:43:26.496Z,8.43
2018-03-20T05:45:55.502Z,9.37
2018-03-20T05:48:29.495Z,8.37
2018-03-20T18:06:02.011Z,6.20
2018-03-20T18:08:30.386Z,7.63
2018-03-20T18:10:58.668Z,10.93
2018-03-20T18:13:27.782Z,6.23
2018-03-20T18:15:56.836Z,6.63
2018-03-20T18:18:25.098Z,7.43
2018-03-20T18:20:53.473Z,7.28
2018-03-20T18:23:21.781Z,5.70
2018-03-20T18:25:50.022Z,5.18
2018-03-20T18:28:18.344Z,8.68
2018-03-20T18:30:46.601Z,6.83
2018-03-20T18:33:14.869Z,4.70
2018-03-20T18:35:43.194Z,6.50
2018-03-20T18:38:12.212Z,7.73
2018-03-20T18:40:40.546Z,7.30
2018-03-20T18:43:08.849Z,9.30
2018-03-20T18:45:38.831Z,7.27
2018-03-20T18:48:07.874Z,11.70
2018-03-20T18:50:36.142Z,12.43
2018-03-20T18:53:05.110Z,11.03
2018-03-20T18:55:34.275Z,9.63
2018-03-20T18:58:03.652Z,10.60
2018-03-20T19:00:31.903Z,10.20
2018-03-20T19:03:00.248Z,9.57
2018-03-20T19:05:28.512Z,10.33
2018-03-20T19:07:57.649Z,9.63
2018-03-20T19:10:26.716Z,11.00
2018-03-20T19:12:54.954Z,7.70
2018-03-20T19:15:23.222Z,10.07
2018-03-20T19:17:55.024Z,7.18
2018-03-20T19:20:23.343Z,10.00
2018-03-20T19:22:51.628Z,7.70
2018-03-20T19:25:19.899Z,8.97
2018-03-20T19:27:48.193Z,10.20
2018-03-20T19:30:16.494Z,7.87
2018-03-20T19:32:46.514Z,7.50
2018-03-20T19:35:14.829Z,8.97
2018-03-20T19:37:43.902Z,7.87
2018-03-20T19:40:12.230Z,11.83
2018-03-20T19:42:40.545Z,7.47
2018-03-20T19:45:08.859Z,8.87
2018-03-20T19:47:38.781Z,7.80
2018-03-20T19:50:07.105Z,8.90
2018-03-20T19:52:36.143Z,6.40
2018-03-20T19:55:05.761Z,8.83
2018-03-20T19:57:34.815Z,8.65
2018-03-20T20:00:04.916Z,7.40
2018-03-20T20:02:34.055Z,8.17
2018-03-20T20:05:03.385Z,12.17
2018-03-20T20:07:31.694Z,9.50
2018-03-20T20:10:02.189Z,8.00
2018-03-20T20:12:31.270Z,12.40
2018-03-20T20:14:59.589Z,11.87
2018-03-20T20:17:28.089Z,10.38
2018-03-20T20:19:58.313Z,8.60
2018-03-20T20:22:26.648Z,18.93
2018-03-20T20:24:55.010Z,18.93
2018-03-20T20:27:23.578Z,18.67
2018-03-20T20:29:52.833Z,16.23
2018-03-20T20:32:21.183Z,15.30
2018-03-20T20:34:49.486Z,13.50
2018-03-20T20:37:19.458Z,9.97
2018-03-20T20:39:47.782Z,10.53
2018-03-20T20:42:16.161Z,8.30
2018-03-20T20:44:44.444Z,14.00
2018-03-20T20:47:12.823Z,11.18
2018-03-20T20:49:44.141Z,11.43
2018-03-20T20:52:12.463Z,7.73
2018-03-20T20:54:41.716Z,7.22
2018-03-20T20:57:10.013Z,6.00
2018-03-20T20:59:38.473Z,9.83
2018-03-20T21:02:08.136Z,6.57
2018-03-20T21:04:38.055Z,7.63
2018-03-20T21:07:06.362Z,8.07
2018-03-20T21:09:34.673Z,11.03
2018-03-20T21:12:03.073Z,9.90
2018-03-20T21:14:32.148Z,8.83
2018-03-20T21:17:00.398Z,8.20
2018-03-20T21:19:28.725Z,9.87
2018-03-20T21:21:57.755Z,6.97
2018-03-20T21:24:26.064Z,5.73
2018-03-20T21:26:54.390Z,5.80
2018-03-20T21:29:22.742Z,6.77
2018-03-20T21:31:51.785Z,9.13
2018-03-20T21:34:20.096Z,8.43
2018-03-20T21:36:48.385Z,5.47
2018-03-20T21:39:18.194Z,6.83
2018-03-20T21:41:46.512Z,5.77
2018-03-20T21:44:14.803Z,4.90
2018-03-20T21:46:43.169Z,8.23
2018-03-20T21:49:11.461Z,10.40
2018-03-20T21:51:39.678Z,5.85
2018-03-20T21:54:09.059Z,6.63
2018-03-20T21:56:37.357Z,6.83
2018-03-20T21:59:05.589Z,7.30
2018-03-20T22:01:33.873Z,7.93
2018-03-20T22:04:02.181Z,6.60
2018-03-20T22:06:31.976Z,6.47
2018-03-20T22:09:00.262Z,4.80
2018-03-20T22:11:30.080Z,8.93
2018-03-20T22:13:58.383Z,9.30
2018-03-20T22:16:27.786Z,9.10
2018-03-20T22:18:56.065Z,7.60
2018-03-20T22:21:24.364Z,9.00
2018-03-20T22:23:53.789Z,6.57
2018-03-20T22:26:22.092Z,8.80
2018-03-20T22:28:50.356Z,9.10
2018-03-20T22:31:18.784Z,6.00
2018-03-20T22:33:47.075Z,8.17
2018-03-20T22:36:15.493Z,8.63
2018-03-20T22:38:43.725Z,6.53
2018-03-20T22:41:11.997Z,11.53
2018-03-20T22:43:40.520Z,9.17
2018-03-20T22:46:08.822Z,7.97
2018-03-20T22:48:37.880Z,10.97
2018-03-20T22:51:06.163Z,6.80
2018-03-20T22:53:34.445Z,8.00
2018-03-20T22:56:02.727Z,6.93
2018-03-20T22:58:31.005Z,9.10
2018-03-20T23:00:59.258Z,5.90
2018-03-20T23:03:27.550Z,9.30
2018-03-20T23:05:57.074Z,8.50
2018-03-20T23:08:25.358Z,8.07
2018-03-20T23:10:54.383Z,8.63
2018-03-20T23:13:22.615Z,13.37
2018-03-20T23:15:51.667Z,10.97
2018-03-20T23:18:19.910Z,7.60
2018-03-20T23:20:49.033Z,7.60
2018-03-20T23:23:17.306Z,7.80
2018-03-20T23:25:45.629Z,8.13
2018-03-20T23:28:13.995Z,6.17
2018-03-20T23:30:42.392Z,13.60
2018-03-20T23:33:10.654Z,8.57
2018-03-20T23:35:38.959Z,7.77
2018-03-20T23:38:07.283Z,8.07
2018-03-20T23:40:35.543Z,6.73
2018-03-20T23:43:03.782Z,8.90
2018-03-20T23:45:32.087Z,8.03
2018-03-20T23:48:00.370Z,9.67
2018-03-20T23:50:28.669Z,8.80
2018-03-20T23:52:57.060Z,9.97
2018-03-20T23:55:25.324Z,14.50
2018-03-20T23:57:53.702Z,8.87
